sensor_id;sensor_type;location;lat;lon;timestamp;temperature;humidity
7894;DHT22;51343;51.396;6.656;2022-12-29T00:04:01;10.50;99.90
7894;DHT22;51343;51.396;6.656;2022-12-29T00:06:29;10.40;99.90
7894;DHT22;51343;51.396;6.656;2022-12-29T00:08:57;10.40;99.90
7894;DHT22;51343;51.396;6.656;2022-12-29T00:11:24;10.40;99.90
7894;DHT22;51343;51.396;6.656;2022-12-29T00:13:51;10.30;99.90
7894;DHT22;51343;51.396;6.656;2022-12-29T00:16:35;10.40;99.90
7894;DHT22;51343;51.396;6.656;2022-12-29T00:19:07;10.40;99.90
7894;DHT22;51343;51.396;6.656;2022-12-29T00:21:56;10.40;99.90
7894;DHT22;51343;51.396;6.656;2022-12-29T00:24:40;10.40;99.90
7894;DHT22;51343;51.396;6.656;2022-12-29T00:27:27;10.50;99.90
7894;DHT22;51343;51.396;6.656;2022-12-29T00:30:12;10.60;99.90
7894;DHT22;51343;51.396;6.656;2022-12-29T00:32:57;10.60;99.90
7894;DHT22;51343;51.396;6.656;2022-12-29T00:35:52;10.70;99.90
7894;DHT22;51343;51.396;6.656;2022-12-29T00:38:21;10.60;99.90
7894;DHT22;51343;51.396;6.656;2022-12-29T00:41:06;10.70;99.90
7894;DHT22;51343;51.396;6.656;2022-12-29T00:43:51;10.70;99.90
7894;DHT22;51343;51.396;6.656;2022-12-29T00:46:36;10.70;99.90
7894;DHT22;51343;51.396;6.656;2022-12-29T00:49:12;10.70;99.90
7894;DHT22;51343;51.396;6.656;2022-12-29T00:52:04;10.60;99.90
7894;DHT22;51343;51.396;6.656;2022-12-29T00:54:32;10.50;99.90
7894;DHT22;51343;51.396;6.656;2022-12-29T00:56:59;10.50;99.90
7894;DHT22;51343;51.396;6.656;2022-12-29T00:59:26;10.40;99.90
7894;DHT22;51343;51.396;6.656;2022-12-29T01:01:53;10.40;99.90
7894;DHT22;51343;51.396;6.656;2022-12-29T01:04:20;10.40;99.90
7894;DHT22;51343;51.396;6.656;2022-12-29T01:06:54;10.40;99.90
7894;DHT22;51343;51.396;6.656;2022-12-29T01:09:22;10.40;99.90
7894;DHT22;51343;51.396;6.656;2022-12-29T01:12:07;10.50;99.90
7894;DHT22;51343;51.396;6.656;2022-12-29T01:14:34;10.50;99.90
7894;DHT22;51343;51.396;6.656;2022-12-29T01:17:01;10.60;99.90
7894;DHT22;51343;51.396;6.656;2022-12-29T01:19:28;10.70;15.30
7894;DHT22;51343;51.396;6.656;2022-12-29T01:21:55;10.80;1.00
7894;DHT22;51343;51.396;6.656;2022-12-29T01:24:23;10.90;1.00
7894;DHT22;51343;51.396;6.656;2022-12-29T01:26:58;10.90;99.90
7894;DHT22;51343;51.396;6.656;2022-12-29T01:29:25;11.00;99.90
7894;DHT22;51343;51.396;6.656;2022-12-29T01:31:52;11.00;99.90
7894;DHT22;51343;51.396;6.656;2022-12-29T01:34:20;11.10;99.90
7894;DHT22;51343;51.396;6.656;2022-12-29T01:36:56;11.10;99.90
7894;DHT22;51343;51.396;6.656;2022-12-29T01:39:26;11.10;99.90
7894;DHT22;51343;51.396;6.656;2022-12-29T01:41:53;11.20;99.90
7894;DHT22;51343;51.396;6.656;2022-12-29T01:47:27;11.30;99.90
7894;DHT22;51343;51.396;6.656;2022-12-29T01:50:03;11.40;99.90
7894;DHT22;51343;51.396;6.656;2022-12-29T01:52:33;11.40;99.90
7894;DHT22;51343;51.396;6.656;2022-12-29T01:55:12;11.50;99.90
7894;DHT22;51343;51.396;6.656;2022-12-29T01:57:50;11.50;99.90
7894;DHT22;51343;51.396;6.656;2022-12-29T02:00:19;11.40;99.90
7894;DHT22;51343;51.396;6.656;2022-12-29T02:02:46;11.40;99.90
7894;DHT22;51343;51.396;6.656;2022-12-29T02:05:18;11.40;99.90
7894;DHT22;51343;51.396;6.656;2022-12-29T02:07:49;11.50;99.90
7894;DHT22;51343;51.396;6.656;2022-12-29T02:10:18;11.50;99.90
7894;DHT22;51343;51.396;6.656;2022-12-29T02:12:45;11.50;99.90
7894;DHT22;51343;51.396;6.656;2022-12-29T02:15:13;11.50;99.90
7894;DHT22;51343;51.396;6.656;2022-12-29T02:17:53;11.60;99.90
7894;DHT22;51343;51.396;6.656;2022-12-29T02:26:18;11.60;99.90
7894;DHT22;51343;51.396;6.656;2022-12-29T02:28:59;11.60;99.90
7894;DHT22;51343;51.396;6.656;2022-12-29T02:31:38;11.50;99.90
7894;DHT22;51343;51.396;6.656;2022-12-29T02:34:10;11.50;99.90
7894;DHT22;51343;51.396;6.656;2022-12-29T02:36:40;11.50;99.90
7894;DHT22;51343;51.396;6.656;2022-12-29T02:39:11;11.50;99.90
7894;DHT22;51343;51.396;6.656;2022-12-29T02:41:46;11.40;99.90
7894;DHT22;51343;51.396;6.656;2022-12-29T02:44:18;11.50;99.90
7894;DHT22;51343;51.396;6.656;2022-12-29T02:46:55;11.50;99.90
7894;DHT22;51343;51.396;6.656;2022-12-29T02:49:27;11.50;99.90
7894;DHT22;51343;51.396;6.656;2022-12-29T02:51:59;11.60;99.90
7894;DHT22;51343;51.396;6.656;2022-12-29T02:54:26;11.60;99.90
7894;DHT22;51343;51.396;6.656;2022-12-29T02:57:09;11.70;99.90
7894;DHT22;51343;51.396;6.656;2022-12-29T02:59:36;11.70;99.90
7894;DHT22;51343;51.396;6.656;2022-12-29T03:02:10;11.70;99.90
7894;DHT22;51343;51.396;6.656;2022-12-29T03:04:46;11.70;99.90
7894;DHT22;51343;51.396;6.656;2022-12-29T03:07:20;11.70;99.90
7894;DHT22;51343;51.396;6.656;2022-12-29T03:09:51;11.70;99.90
7894;DHT22;51343;51.396;6.656;2022-12-29T03:12:37;11.70;99.90
7894;DHT22;51343;51.396;6.656;2022-12-29T03:15:26;11.70;99.90
7894;DHT22;51343;51.396;6.656;2022-12-29T03:18:15;11.70;99.90
7894;DHT22;51343;51.396;6.656;2022-12-29T03:20:44;11.70;99.90
7894;DHT22;51343;51.396;6.656;2022-12-29T03:23:11;11.70;99.90
7894;DHT22;51343;51.396;6.656;2022-12-29T03:25:39;11.70;99.90
7894;DHT22;51343;51.396;6.656;2022-12-29T03:28:08;11.60;99.90
7894;DHT22;51343;51.396;6.656;2022-12-29T03:30:35;11.60;99.90
7894;DHT22;51343;51.396;6.656;2022-12-29T03:33:04;11.80;99.90
7894;DHT22;51343;51.396;6.656;2022-12-29T03:35:36;11.80;99.90
7894;DHT22;51343;51.396;6.656;2022-12-29T03:38:05;11.90;99.90
7894;DHT22;51343;51.396;6.656;2022-12-29T03:40:37;11.80;99.90
7894;DHT22;51343;51.396;6.656;2022-12-29T03:43:07;11.80;99.90
7894;DHT22;51343;51.396;6.656;2022-12-29T03:45:52;11.80;99.90
7894;DHT22;51343;51.396;6.656;2022-12-29T03:48:25;11.70;99.90
7894;DHT22;51343;51.396;6.656;2022-12-29T03:51:00;11.60;99.90
7894;DHT22;51343;51.396;6.656;2022-12-29T03:53:34;11.60;99.90
7894;DHT22;51343;51.396;6.656;2022-12-29T03:56:06;11.60;99.90
7894;DHT22;51343;51.396;6.656;2022-12-29T03:58:33;11.60;99.90
7894;DHT22;51343;51.396;6.656;2022-12-29T04:01:00;11.50;99.90
7894;DHT22;51343;51.396;6.656;2022-12-29T04:03:27;11.50;99.90
7894;DHT22;51343;51.396;6.656;2022-12-29T04:05:53;11.60;99.90
7894;DHT22;51343;51.396;6.656;2022-12-29T04:08:21;11.50;99.90
7894;DHT22;51343;51.396;6.656;2022-12-29T04:10:48;11.40;99.90
7894;DHT22;51343;51.396;6.656;2022-12-29T04:13:23;11.40;99.90
7894;DHT22;51343;51.396;6.656;2022-12-29T04:15:49;11.40;99.90
7894;DHT22;51343;51.396;6.656;2022-12-29T04:18:16;11.50;99.90
7894;DHT22;51343;51.396;6.656;2022-12-29T04:20:43;11.60;99.90
7894;DHT22;51343;51.396;6.656;2022-12-29T04:23:31;11.60;99.90
7894;DHT22;51343;51.396;6.656;2022-12-29T04:25:58;11.60;99.90
7894;DHT22;51343;51.396;6.656;2022-12-29T04:28:24;11.60;99.90
7894;DHT22;51343;51.396;6.656;2022-12-29T04:30:51;11.70;99.90
7894;DHT22;51343;51.396;6.656;2022-12-29T04:33:18;11.80;99.90
7894;DHT22;51343;51.396;6.656;2022-12-29T04:35:44;11.90;99.90
7894;DHT22;51343;51.396;6.656;2022-12-29T04:38:12;11.90;99.90
7894;DHT22;51343;51.396;6.656;2022-12-29T04:40:40;12.00;99.90
7894;DHT22;51343;51.396;6.656;2022-12-29T04:43:07;12.10;99.90
7894;DHT22;51343;51.396;6.656;2022-12-29T04:45:42;12.00;99.90
7894;DHT22;51343;51.396;6.656;2022-12-29T04:48:09;12.10;99.90
7894;DHT22;51343;51.396;6.656;2022-12-29T04:50:35;12.10;99.90
7894;DHT22;51343;51.396;6.656;2022-12-29T04:53:02;12.00;99.90
7894;DHT22;51343;51.396;6.656;2022-12-29T04:55:29;12.10;99.90
7894;DHT22;51343;51.396;6.656;2022-12-29T04:57:57;12.20;99.90
7894;DHT22;51343;51.396;6.656;2022-12-29T05:00:26;12.10;99.90
7894;DHT22;51343;51.396;6.656;2022-12-29T05:02:53;12.10;99.90
7894;DHT22;51343;51.396;6.656;2022-12-29T05:05:20;12.10;99.90
7894;DHT22;51343;51.396;6.656;2022-12-29T05:07:46;12.10;99.90
7894;DHT22;51343;51.396;6.656;2022-12-29T05:10:13;12.10;99.90
7894;DHT22;51343;51.396;6.656;2022-12-29T05:12:40;12.20;99.90
7894;DHT22;51343;51.396;6.656;2022-12-29T05:15:09;12.20;99.90
7894;DHT22;51343;51.396;6.656;2022-12-29T05:17:35;12.20;99.90
7894;DHT22;51343;51.396;6.656;2022-12-29T05:20:03;12.20;99.90
7894;DHT22;51343;51.396;6.656;2022-12-29T05:22:29;12.10;99.90
7894;DHT22;51343;51.396;6.656;2022-12-29T05:24:56;12.10;99.90
7894;DHT22;51343;51.396;6.656;2022-12-29T05:27:23;12.10;99.90
7894;DHT22;51343;51.396;6.656;2022-12-29T05:29:49;12.10;99.90
7894;DHT22;51343;51.396;6.656;2022-12-29T05:32:22;12.00;99.90
7894;DHT22;51343;51.396;6.656;2022-12-29T05:34:49;11.90;99.90
7894;DHT22;51343;51.396;6.656;2022-12-29T05:37:22;11.80;99.90
7894;DHT22;51343;51.396;6.656;2022-12-29T05:39:52;11.80;99.90
7894;DHT22;51343;51.396;6.656;2022-12-29T05:42:19;11.70;99.90
7894;DHT22;51343;51.396;6.656;2022-12-29T05:44:46;11.60;99.90
7894;DHT22;51343;51.396;6.656;2022-12-29T05:47:15;11.50;99.90
7894;DHT22;51343;51.396;6.656;2022-12-29T05:49:53;11.50;99.90
7894;DHT22;51343;51.396;6.656;2022-12-29T05:52:20;11.30;99.90
7894;DHT22;51343;51.396;6.656;2022-12-29T05:54:46;11.30;99.90
7894;DHT22;51343;51.396;6.656;2022-12-29T05:57:13;11.30;99.90
7894;DHT22;51343;51.396;6.656;2022-12-29T05:59:40;11.20;99.90
7894;DHT22;51343;51.396;6.656;2022-12-29T06:02:13;11.20;99.90
7894;DHT22;51343;51.396;6.656;2022-12-29T06:04:40;11.10;99.90
7894;DHT22;51343;51.396;6.656;2022-12-29T06:07:08;11.00;99.90
7894;DHT22;51343;51.396;6.656;2022-12-29T06:09:35;11.00;99.90
7894;DHT22;51343;51.396;6.656;2022-12-29T06:12:02;10.90;99.90
7894;DHT22;51343;51.396;6.656;2022-12-29T06:14:29;10.80;99.90
7894;DHT22;51343;51.396;6.656;2022-12-29T06:16:56;10.80;99.90
7894;DHT22;51343;51.396;6.656;2022-12-29T06:19:23;10.80;99.90
7894;DHT22;51343;51.396;6.656;2022-12-29T06:21:50;10.80;99.90
7894;DHT22;51343;51.396;6.656;2022-12-29T06:24:21;10.80;99.90
7894;DHT22;51343;51.396;6.656;2022-12-29T06:26:48;10.80;99.90
7894;DHT22;51343;51.396;6.656;2022-12-29T06:29:15;10.90;99.90
7894;DHT22;51343;51.396;6.656;2022-12-29T06:31:43;10.90;99.90
7894;DHT22;51343;51.396;6.656;2022-12-29T06:34:10;11.00;99.90
7894;DHT22;51343;51.396;6.656;2022-12-29T06:36:37;10.90;99.90
7894;DHT22;51343;51.396;6.656;2022-12-29T06:39:14;10.90;99.90
7894;DHT22;51343;51.396;6.656;2022-12-29T06:41:43;11.00;99.90
7894;DHT22;51343;51.396;6.656;2022-12-29T06:44:10;11.10;99.90
7894;DHT22;51343;51.396;6.656;2022-12-29T06:46:37;11.10;99.90
7894;DHT22;51343;51.396;6.656;2022-12-29T06:49:13;11.20;99.90
7894;DHT22;51343;51.396;6.656;2022-12-29T06:51:40;11.20;99.90
7894;DHT22;51343;51.396;6.656;2022-12-29T06:54:09;11.20;99.90
7894;DHT22;51343;51.396;6.656;2022-12-29T06:56:35;11.20;99.90
7894;DHT22;51343;51.396;6.656;2022-12-29T06:59:09;11.20;99.90
7894;DHT22;51343;51.396;6.656;2022-12-29T07:01:37;11.30;99.90
7894;DHT22;51343;51.396;6.656;2022-12-29T07:04:11;11.30;99.90
7894;DHT22;51343;51.396;6.656;2022-12-29T07:06:39;11.40;99.90
7894;DHT22;51343;51.396;6.656;2022-12-29T07:12:16;11.40;99.90
7894;DHT22;51343;51.396;6.656;2022-12-29T07:14:52;11.40;99.90
7894;DHT22;51343;51.396;6.656;2022-12-29T07:17:20;11.40;99.90
7894;DHT22;51343;51.396;6.656;2022-12-29T07:19:50;11.40;99.90
7894;DHT22;51343;51.396;6.656;2022-12-29T07:22:16;11.40;99.90
7894;DHT22;51343;51.396;6.656;2022-12-29T07:24:43;11.40;99.90
7894;DHT22;51343;51.396;6.656;2022-12-29T07:27:12;11.40;99.90
7894;DHT22;51343;51.396;6.656;2022-12-29T07:29:39;11.40;99.90
7894;DHT22;51343;51.396;6.656;2022-12-29T07:32:07;11.40;99.90
7894;DHT22;51343;51.396;6.656;2022-12-29T07:34:36;11.40;99.90
7894;DHT22;51343;51.396;6.656;2022-12-29T07:37:04;11.40;99.90
7894;DHT22;51343;51.396;6.656;2022-12-29T07:39:31;11.40;99.90
7894;DHT22;51343;51.396;6.656;2022-12-29T07:42:00;11.40;99.90
7894;DHT22;51343;51.396;6.656;2022-12-29T07:44:26;11.40;99.90
7894;DHT22;51343;51.396;6.656;2022-12-29T07:46:53;11.40;99.90
7894;DHT22;51343;51.396;6.656;2022-12-29T07:49:21;11.40;99.90
7894;DHT22;51343;51.396;6.656;2022-12-29T07:51:48;11.40;99.90
7894;DHT22;51343;51.396;6.656;2022-12-29T07:56:45;11.40;99.90
7894;DHT22;51343;51.396;6.656;2022-12-29T07:59:11;11.30;99.90
7894;DHT22;51343;51.396;6.656;2022-12-29T08:01:38;11.30;99.90
7894;DHT22;51343;51.396;6.656;2022-12-29T08:04:07;11.30;99.90
7894;DHT22;51343;51.396;6.656;2022-12-29T08:06:37;11.20;99.90
7894;DHT22;51343;51.396;6.656;2022-12-29T08:09:07;11.20;99.90
7894;DHT22;51343;51.396;6.656;2022-12-29T08:11:34;11.20;99.90
7894;DHT22;51343;51.396;6.656;2022-12-29T08:14:06;11.20;99.90
7894;DHT22;51343;51.396;6.656;2022-12-29T08:16:33;11.20;99.90
7894;DHT22;51343;51.396;6.656;2022-12-29T08:19:02;11.20;99.90
7894;DHT22;51343;51.396;6.656;2022-12-29T08:21:29;11.20;99.90
7894;DHT22;51343;51.396;6.656;2022-12-29T08:23:57;11.30;99.90
7894;DHT22;51343;51.396;6.656;2022-12-29T08:26:24;11.30;99.90
7894;DHT22;51343;51.396;6.656;2022-12-29T08:28:51;11.20;99.90
7894;DHT22;51343;51.396;6.656;2022-12-29T08:31:18;11.20;99.90
7894;DHT22;51343;51.396;6.656;2022-12-29T08:33:48;11.20;99.90
7894;DHT22;51343;51.396;6.656;2022-12-29T08:36:14;11.20;99.90
7894;DHT22;51343;51.396;6.656;2022-12-29T08:38:41;11.20;99.90
7894;DHT22;51343;51.396;6.656;2022-12-29T08:41:10;11.30;99.90
7894;DHT22;51343;51.396;6.656;2022-12-29T08:43:38;11.20;99.90
7894;DHT22;51343;51.396;6.656;2022-12-29T08:46:04;11.20;99.90
7894;DHT22;51343;51.396;6.656;2022-12-29T08:48:31;11.20;99.90
7894;DHT22;51343;51.396;6.656;2022-12-29T08:50:58;11.20;99.90
7894;DHT22;51343;51.396;6.656;2022-12-29T08:53:33;11.10;99.90
7894;DHT22;51343;51.396;6.656;2022-12-29T08:56:03;11.10;99.90
7894;DHT22;51343;51.396;6.656;2022-12-29T08:58:36;11.00;99.90
7894;DHT22;51343;51.396;6.656;2022-12-29T09:01:03;11.00;99.90
7894;DHT22;51343;51.396;6.656;2022-12-29T09:03:31;10.90;99.90
7894;DHT22;51343;51.396;6.656;2022-12-29T09:06:00;10.90;99.90
7894;DHT22;51343;51.396;6.656;2022-12-29T09:08:36;10.90;99.90
7894;DHT22;51343;51.396;6.656;2022-12-29T09:11:06;10.90;99.90
7894;DHT22;51343;51.396;6.656;2022-12-29T09:13:40;10.90;99.90
7894;DHT22;51343;51.396;6.656;2022-12-29T09:16:16;11.10;99.90
7894;DHT22;51343;51.396;6.656;2022-12-29T09:18:49;11.10;99.90
7894;DHT22;51343;51.396;6.656;2022-12-29T09:21:17;11.10;99.90
7894;DHT22;51343;51.396;6.656;2022-12-29T09:26:32;11.20;99.90
7894;DHT22;51343;51.396;6.656;2022-12-29T09:29:01;11.20;99.90
7894;DHT22;51343;51.396;6.656;2022-12-29T09:31:27;11.10;99.90
7894;DHT22;51343;51.396;6.656;2022-12-29T09:43:06;11.20;99.90
7894;DHT22;51343;51.396;6.656;2022-12-29T09:45:42;11.30;99.90
7894;DHT22;51343;51.396;6.656;2022-12-29T09:48:11;11.30;99.90
7894;DHT22;51343;51.396;6.656;2022-12-29T09:50:40;11.20;99.90
7894;DHT22;51343;51.396;6.656;2022-12-29T09:53:11;11.20;99.90
7894;DHT22;51343;51.396;6.656;2022-12-29T09:58:13;11.20;99.90
7894;DHT22;51343;51.396;6.656;2022-12-29T10:01:06;11.30;99.90
7894;DHT22;51343;51.396;6.656;2022-12-29T10:03:36;11.30;99.90
7894;DHT22;51343;51.396;6.656;2022-12-29T10:06:24;11.20;99.90
7894;DHT22;51343;51.396;6.656;2022-12-29T10:08:56;11.20;99.90
7894;DHT22;51343;51.396;6.656;2022-12-29T10:11:29;11.20;99.90
7894;DHT22;51343;51.396;6.656;2022-12-29T10:16:54;11.20;99.90
7894;DHT22;51343;51.396;6.656;2022-12-29T10:19:40;11.20;99.90
7894;DHT22;51343;51.396;6.656;2022-12-29T10:25:10;11.30;99.90
7894;DHT22;51343;51.396;6.656;2022-12-29T10:27:38;11.30;99.90
7894;DHT22;51343;51.396;6.656;2022-12-29T10:30:10;11.30;99.90
7894;DHT22;51343;51.396;6.656;2022-12-29T10:32:39;11.30;99.90
7894;DHT22;51343;51.396;6.656;2022-12-29T10:35:10;11.30;99.90
7894;DHT22;51343;51.396;6.656;2022-12-29T10:37:38;11.30;99.90
7894;DHT22;51343;51.396;6.656;2022-12-29T10:40:14;11.30;99.90
7894;DHT22;51343;51.396;6.656;2022-12-29T10:42:42;11.30;99.90
7894;DHT22;51343;51.396;6.656;2022-12-29T10:45:12;11.30;99.90
7894;DHT22;51343;51.396;6.656;2022-12-29T10:47:46;11.30;99.90
7894;DHT22;51343;51.396;6.656;2022-12-29T10:50:14;11.30;99.90
7894;DHT22;51343;51.396;6.656;2022-12-29T10:52:48;11.40;99.90
7894;DHT22;51343;51.396;6.656;2022-12-29T10:58:13;11.40;99.90
7894;DHT22;51343;51.396;6.656;2022-12-29T11:03:56;11.40;99.90
7894;DHT22;51343;51.396;6.656;2022-12-29T11:12:21;11.40;99.90
7894;DHT22;51343;51.396;6.656;2022-12-29T11:14:54;11.40;99.90
7894;DHT22;51343;51.396;6.656;2022-12-29T11:17:26;11.40;99.90
7894;DHT22;51343;51.396;6.656;2022-12-29T11:19:55;11.50;99.90
7894;DHT22;51343;51.396;6.656;2022-12-29T11:22:33;11.40;99.90
7894;DHT22;51343;51.396;6.656;2022-12-29T11:25:10;11.40;99.90
7894;DHT22;51343;51.396;6.656;2022-12-29T11:27:40;11.40;99.90
7894;DHT22;51343;51.396;6.656;2022-12-29T11:30:37;11.40;99.90
7894;DHT22;51343;51.396;6.656;2022-12-29T11:33:03;11.50;99.90
7894;DHT22;51343;51.396;6.656;2022-12-29T11:35:34;11.50;99.90
7894;DHT22;51343;51.396;6.656;2022-12-29T11:38:03;11.50;99.90
7894;DHT22;51343;51.396;6.656;2022-12-29T11:40:37;11.50;99.90
7894;DHT22;51343;51.396;6.656;2022-12-29T11:43:04;11.50;99.90
7894;DHT22;51343;51.396;6.656;2022-12-29T11:45:33;11.50;99.90
7894;DHT22;51343;51.396;6.656;2022-12-29T11:48:00;11.50;99.90
7894;DHT22;51343;51.396;6.656;2022-12-29T11:50:37;11.50;99.90
7894;DHT22;51343;51.396;6.656;2022-12-29T11:53:05;11.50;99.90
7894;DHT22;51343;51.396;6.656;2022-12-29T11:55:36;11.40;99.90
7894;DHT22;51343;51.396;6.656;2022-12-29T11:58:03;11.40;99.90
7894;DHT22;51343;51.396;6.656;2022-12-29T12:00:31;11.40;99.90
7894;DHT22;51343;51.396;6.656;2022-12-29T12:03:05;11.40;99.90
7894;DHT22;51343;51.396;6.656;2022-12-29T12:05:37;11.50;99.90
7894;DHT22;51343;51.396;6.656;2022-12-29T12:08:09;11.50;99.90
7894;DHT22;51343;51.396;6.656;2022-12-29T12:10:37;11.40;99.90
7894;DHT22;51343;51.396;6.656;2022-12-29T12:13:22;11.40;99.90
7894;DHT22;51343;51.396;6.656;2022-12-29T12:16:02;11.40;99.90
7894;DHT22;51343;51.396;6.656;2022-12-29T12:18:40;11.40;99.90
7894;DHT22;51343;51.396;6.656;2022-12-29T12:21:12;11.30;99.90
7894;DHT22;51343;51.396;6.656;2022-12-29T12:23:44;11.40;99.90
7894;DHT22;51343;51.396;6.656;2022-12-29T12:26:15;11.40;99.90
7894;DHT22;51343;51.396;6.656;2022-12-29T12:31:17;11.30;99.90
7894;DHT22;51343;51.396;6.656;2022-12-29T12:33:46;11.30;99.90
7894;DHT22;51343;51.396;6.656;2022-12-29T12:36:21;11.40;99.90
7894;DHT22;51343;51.396;6.656;2022-12-29T12:38:53;11.40;99.90
7894;DHT22;51343;51.396;6.656;2022-12-29T12:41:24;11.40;99.90
7894;DHT22;51343;51.396;6.656;2022-12-29T12:44:00;11.40;99.90
7894;DHT22;51343;51.396;6.656;2022-12-29T12:46:36;11.40;99.90
7894;DHT22;51343;51.396;6.656;2022-12-29T12:49:12;11.40;99.90
7894;DHT22;51343;51.396;6.656;2022-12-29T12:51:46;11.30;99.90
7894;DHT22;51343;51.396;6.656;2022-12-29T12:54:23;11.30;99.90
7894;DHT22;51343;51.396;6.656;2022-12-29T12:56:57;11.30;99.90
7894;DHT22;51343;51.396;6.656;2022-12-29T12:59:41;11.40;99.90
7894;DHT22;51343;51.396;6.656;2022-12-29T13:02:19;11.40;99.90
7894;DHT22;51343;51.396;6.656;2022-12-29T13:04:57;11.40;99.90
7894;DHT22;51343;51.396;6.656;2022-12-29T13:07:31;11.30;99.90
7894;DHT22;51343;51.396;6.656;2022-12-29T13:12:50;11.30;99.90
7894;DHT22;51343;51.396;6.656;2022-12-29T13:15:23;11.30;99.90
7894;DHT22;51343;51.396;6.656;2022-12-29T13:17:54;11.40;99.90
7894;DHT22;51343;51.396;6.656;2022-12-29T13:20:28;11.40;99.90
7894;DHT22;51343;51.396;6.656;2022-12-29T13:22:58;11.40;99.90
7894;DHT22;51343;51.396;6.656;2022-12-29T13:25:30;11.30;99.90
7894;DHT22;51343;51.396;6.656;2022-12-29T13:28:01;11.30;99.90
7894;DHT22;51343;51.396;6.656;2022-12-29T13:30:31;11.20;99.90
7894;DHT22;51343;51.396;6.656;2022-12-29T13:33:01;11.20;99.90
7894;DHT22;51343;51.396;6.656;2022-12-29T13:35:33;11.10;99.90
7894;DHT22;51343;51.396;6.656;2022-12-29T13:38:07;11.10;99.90
7894;DHT22;51343;51.396;6.656;2022-12-29T13:40:38;11.10;99.90
7894;DHT22;51343;51.396;6.656;2022-12-29T13:43:08;11.00;99.90
7894;DHT22;51343;51.396;6.656;2022-12-29T13:45:37;11.00;99.90
7894;DHT22;51343;51.396;6.656;2022-12-29T13:48:06;10.90;99.90
7894;DHT22;51343;51.396;6.656;2022-12-29T13:53:23;10.90;99.90
7894;DHT22;51343;51.396;6.656;2022-12-29T13:55:57;10.90;99.90
7894;DHT22;51343;51.396;6.656;2022-12-29T13:58:27;10.80;99.90
7894;DHT22;51343;51.396;6.656;2022-12-29T14:01:00;10.80;99.90
7894;DHT22;51343;51.396;6.656;2022-12-29T14:03:41;10.80;99.90
7894;DHT22;51343;51.396;6.656;2022-12-29T14:06:16;10.70;99.90
7894;DHT22;51343;51.396;6.656;2022-12-29T14:08:47;10.70;99.90
7894;DHT22;51343;51.396;6.656;2022-12-29T14:11:15;10.60;99.90
7894;DHT22;51343;51.396;6.656;2022-12-29T14:13:45;10.50;99.90
7894;DHT22;51343;51.396;6.656;2022-12-29T14:19:04;10.50;99.90
7894;DHT22;51343;51.396;6.656;2022-12-29T14:21:33;10.60;99.90
7894;DHT22;51343;51.396;6.656;2022-12-29T14:26:47;10.80;99.90
7894;DHT22;51343;51.396;6.656;2022-12-29T14:32:01;10.80;99.90
7894;DHT22;51343;51.396;6.656;2022-12-29T14:34:34;10.90;99.90
7894;DHT22;51343;51.396;6.656;2022-12-29T14:37:21;10.90;99.90
7894;DHT22;51343;51.396;6.656;2022-12-29T14:40:06;10.90;99.90
7894;DHT22;51343;51.396;6.656;2022-12-29T14:42:45;10.90;99.90
7894;DHT22;51343;51.396;6.656;2022-12-29T14:45:23;10.90;99.90
7894;DHT22;51343;51.396;6.656;2022-12-29T14:47:54;10.90;99.90
7894;DHT22;51343;51.396;6.656;2022-12-29T14:50:23;10.80;99.90
7894;DHT22;51343;51.396;6.656;2022-12-29T14:52:53;10.80;99.90
7894;DHT22;51343;51.396;6.656;2022-12-29T14:55:30;10.90;99.90
7894;DHT22;51343;51.396;6.656;2022-12-29T14:58:05;10.90;99.90
7894;DHT22;51343;51.396;6.656;2022-12-29T15:00:35;10.80;99.90
7894;DHT22;51343;51.396;6.656;2022-12-29T15:03:03;10.80;99.90
7894;DHT22;51343;51.396;6.656;2022-12-29T15:05:32;10.80;99.90
7894;DHT22;51343;51.396;6.656;2022-12-29T15:08:00;10.80;99.90
7894;DHT22;51343;51.396;6.656;2022-12-29T15:10:31;10.80;99.90
7894;DHT22;51343;51.396;6.656;2022-12-29T15:13:00;10.80;99.90
7894;DHT22;51343;51.396;6.656;2022-12-29T15:15:35;10.70;99.90
7894;DHT22;51343;51.396;6.656;2022-12-29T15:18:14;10.70;99.90
7894;DHT22;51343;51.396;6.656;2022-12-29T15:20:41;10.60;99.90
7894;DHT22;51343;51.396;6.656;2022-12-29T15:23:09;10.60;99.90
7894;DHT22;51343;51.396;6.656;2022-12-29T15:25:36;10.60;99.90
7894;DHT22;51343;51.396;6.656;2022-12-29T15:28:05;10.70;99.90
7894;DHT22;51343;51.396;6.656;2022-12-29T15:30:34;10.70;99.90
7894;DHT22;51343;51.396;6.656;2022-12-29T15:33:01;10.60;99.90
7894;DHT22;51343;51.396;6.656;2022-12-29T15:35:31;10.60;99.90
7894;DHT22;51343;51.396;6.656;2022-12-29T15:38:00;10.60;99.90
7894;DHT22;51343;51.396;6.656;2022-12-29T15:40:38;10.60;99.90
7894;DHT22;51343;51.396;6.656;2022-12-29T15:45:53;10.50;99.90
7894;DHT22;51343;51.396;6.656;2022-12-29T15:48:23;10.60;99.90
7894;DHT22;51343;51.396;6.656;2022-12-29T15:50:50;10.50;99.90
7894;DHT22;51343;51.396;6.656;2022-12-29T15:53:19;10.50;99.90
7894;DHT22;51343;51.396;6.656;2022-12-29T15:55:58;10.50;99.90
7894;DHT22;51343;51.396;6.656;2022-12-29T15:58:26;10.40;99.90
7894;DHT22;51343;51.396;6.656;2022-12-29T16:00:57;10.40;99.90
7894;DHT22;51343;51.396;6.656;2022-12-29T16:03:27;10.40;99.90
7894;DHT22;51343;51.396;6.656;2022-12-29T16:05:56;10.30;99.90
7894;DHT22;51343;51.396;6.656;2022-12-29T16:08:31;10.20;99.90
7894;DHT22;51343;51.396;6.656;2022-12-29T16:10:59;10.10;99.90
7894;DHT22;51343;51.396;6.656;2022-12-29T16:13:28;10.00;99.90
7894;DHT22;51343;51.396;6.656;2022-12-29T16:15:58;10.00;99.90
7894;DHT22;51343;51.396;6.656;2022-12-29T16:18:27;9.90;99.90
7894;DHT22;51343;51.396;6.656;2022-12-29T16:21:00;9.90;99.90
7894;DHT22;51343;51.396;6.656;2022-12-29T16:26:10;10.00;99.90
7894;DHT22;51343;51.396;6.656;2022-12-29T16:28:40;9.90;99.90
7894;DHT22;51343;51.396;6.656;2022-12-29T16:31:23;9.90;99.90
7894;DHT22;51343;51.396;6.656;2022-12-29T16:33:51;10.00;99.90
7894;DHT22;51343;51.396;6.656;2022-12-29T16:36:26;10.00;99.90
7894;DHT22;51343;51.396;6.656;2022-12-29T16:41:33;9.90;99.90
7894;DHT22;51343;51.396;6.656;2022-12-29T16:44:12;9.90;99.90
7894;DHT22;51343;51.396;6.656;2022-12-29T16:46:44;10.00;99.90
7894;DHT22;51343;51.396;6.656;2022-12-29T16:49:25;10.00;99.90
7894;DHT22;51343;51.396;6.656;2022-12-29T16:51:53;10.00;99.90
7894;DHT22;51343;51.396;6.656;2022-12-29T16:54:21;10.00;99.90
7894;DHT22;51343;51.396;6.656;2022-12-29T16:56:57;9.60;99.90
7894;DHT22;51343;51.396;6.656;2022-12-29T16:59:29;8.80;99.90
7894;DHT22;51343;51.396;6.656;2022-12-29T17:02:07;8.30;99.90
7894;DHT22;51343;51.396;6.656;2022-12-29T17:07:37;7.70;99.90
7894;DHT22;51343;51.396;6.656;2022-12-29T17:10:11;7.40;99.90
7894;DHT22;51343;51.396;6.656;2022-12-29T17:12:52;7.30;99.90
7894;DHT22;51343;51.396;6.656;2022-12-29T17:23:51;7.20;99.90
7894;DHT22;51343;51.396;6.656;2022-12-29T17:26:18;7.20;99.90
7894;DHT22;51343;51.396;6.656;2022-12-29T17:28:44;7.30;99.90
7894;DHT22;51343;51.396;6.656;2022-12-29T17:31:12;7.20;99.90
7894;DHT22;51343;51.396;6.656;2022-12-29T17:36:45;7.20;99.90
7894;DHT22;51343;51.396;6.656;2022-12-29T17:39:13;7.20;99.90
7894;DHT22;51343;51.396;6.656;2022-12-29T17:41:40;7.20;99.90